Time;durP1;ratioP1;P1;durP2;ratioP2;P2;SDS_P1;SDS_P2;PMS_P1;PMS_P2;Temp;Humidity;BMP_temperature;BMP_pressure;BME280_temperature;BME280_humidity;BME280_pressure;Samples;Min_cycle;Max_cycle;Signal;HPM_P1;HPM_P2
2023/09/23 00:01:26;;;;;;;1999.90;999.90;;;;;;;;;;5066502;28;20204;-70
2023/09/23 00:03:53;;;;;;;1999.90;999.90;;;;;;;;;;5064444;28;20246;-70
2023/09/23 00:06:20;;;;;;;1999.90;999.90;;;;;;;;;;5065975;28;20661;-70
2023/09/23 00:08:48;;;;;;;1999.90;999.90;;;;;;;;;;5064649;28;20739;-69
2023/09/23 00:11:16;;;;;;;1999.90;999.90;;;;;;;;;;5065634;28;20251;-69
2023/09/23 00:13:44;;;;;;;1999.90;999.90;;;;;;;;;;5065759;28;20198;-62
2023/09/23 00:16:15;;;;;;;1999.90;999.90;;;;;;;;;;5065260;28;20561;-62
2023/09/23 00:18:43;;;;;;;1999.90;999.90;;;;;;;;;;5065600;28;20183;-67
2023/09/23 00:21:11;;;;;;;1999.90;999.90;;;;;;;;;;5064897;28;20286;-61
2023/09/23 00:23:39;;;;;;;1999.90;999.90;;;;;;;;;;5065847;28;20208;-65
2023/09/23 00:26:07;;;;;;;1999.90;999.90;;;;;;;;;;5065254;28;20304;-71
2023/09/23 00:28:35;;;;;;;1999.90;999.90;;;;;;;;;;5064918;28;20213;-63
2023/09/23 00:31:10;;;;;;;1999.90;999.90;;;;;;;;;;5064406;28;20198;-71
2023/09/23 00:33:38;;;;;;;1999.90;999.90;;;;;;;;;;5067630;28;20664;-66
2023/09/23 00:36:07;;;;;;;1999.90;999.90;;;;;;;;;;5069748;28;20246;-66
2023/09/23 00:38:34;;;;;;;1999.90;999.90;;;;;;;;;;5067901;28;20230;-68
2023/09/23 00:41:02;;;;;;;1999.90;999.90;;;;;;;;;;5069887;28;20211;-62
2023/09/23 00:43:32;;;;;;;1999.90;999.90;;;;;;;;;;5069041;28;20189;-66
2023/09/23 00:46:00;;;;;;;1999.90;999.90;;;;;;;;;;5069041;28;20308;-69
2023/09/23 00:48:31;;;;;;;1999.90;999.90;;;;;;;;;;5068574;28;20205;-66
2023/09/23 00:50:59;;;;;;;1999.90;999.90;;;;;;;;;;5068039;28;20272;-63
2023/09/23 00:53:28;;;;;;;1999.90;999.90;;;;;;;;;;5069685;28;20277;-63
2023/09/23 00:55:57;;;;;;;1999.90;999.90;;;;;;;;;;5068200;28;20282;-66
2023/09/23 00:58:26;;;;;;;1999.90;999.90;;;;;;;;;;5069220;28;20276;-66
2023/09/23 01:00:55;;;;;;;1999.90;999.90;;;;;;;;;;5068473;28;20209;-66
2023/09/23 01:03:22;;;;;;;1999.90;999.90;;;;;;;;;;5068814;28;20220;-65
2023/09/23 01:06:08;;;;;;;1999.90;999.90;;;;;;;;;;5067092;28;20221;-64
2023/09/23 01:08:38;;;;;;;1999.90;999.90;;;;;;;;;;5067945;28;20182;-66
2023/09/23 01:11:08;;;;;;;1999.90;999.90;;;;;;;;;;5067452;28;20301;-66
2023/09/23 01:13:36;;;;;;;1999.90;999.90;;;;;;;;;;5068030;28;20637;-69
2023/09/23 01:16:09;;;;;;;1999.90;999.90;;;;;;;;;;5068272;28;20198;-66
2023/09/23 01:18:36;;;;;;;1999.90;999.90;;;;;;;;;;5068357;28;20629;-63
2023/09/23 01:21:08;;;;;;;1999.90;999.90;;;;;;;;;;5067733;28;20189;-69
2023/09/23 01:23:38;;;;;;;1999.90;999.90;;;;;;;;;;5069176;28;20205;-69
2023/09/23 01:26:05;;;;;;;1999.90;999.90;;;;;;;;;;5067399;28;20219;-66
2023/09/23 01:28:33;;;;;;;1999.90;999.90;;;;;;;;;;5068827;28;20248;-63
2023/09/23 01:31:02;;;;;;;1999.90;999.90;;;;;;;;;;5067480;28;20197;-62
2023/09/23 01:33:29;;;;;;;1999.90;999.90;;;;;;;;;;5068243;28;20286;-61
2023/09/23 01:36:02;;;;;;;1999.90;999.90;;;;;;;;;;5067634;28;20305;-66
2023/09/23 01:38:29;;;;;;;1999.90;999.90;;;;;;;;;;5067285;28;20388;-66
2023/09/23 01:40:58;;;;;;;1999.90;999.90;;;;;;;;;;5068075;28;20186;-63
2023/09/23 01:43:26;;;;;;;1999.90;999.90;;;;;;;;;;5066859;28;20912;-69
2023/09/23 01:45:58;;;;;;;1999.90;999.90;;;;;;;;;;5066646;28;20230;-64
2023/09/23 01:48:29;;;;;;;1999.90;999.90;;;;;;;;;;5067313;28;20206;-61
2023/09/23 01:50:58;;;;;;;1999.90;999.90;;;;;;;;;;5066714;28;20244;-66
2023/09/23 01:53:26;;;;;;;1999.90;999.90;;;;;;;;;;5068146;28;20247;-67
2023/09/23 01:55:54;;;;;;;1999.90;999.90;;;;;;;;;;5066945;28;20193;-63
2023/09/23 01:58:23;;;;;;;1999.90;999.90;;;;;;;;;;5068129;28;20280;-65
2023/09/23 02:00:52;;;;;;;1999.90;999.90;;;;;;;;;;5066782;28;20197;-62
2023/09/23 02:03:20;;;;;;;1999.90;999.90;;;;;;;;;;5068171;28;20198;-65
2023/09/23 02:05:48;;;;;;;1999.90;999.90;;;;;;;;;;5066827;28;20763;-64
2023/09/23 02:08:15;;;;;;;1999.90;999.90;;;;;;;;;;5067266;28;20606;-66
2023/09/23 02:10:45;;;;;;;1999.90;999.90;;;;;;;;;;5068063;28;20271;-70
2023/09/23 02:13:12;;;;;;;1999.90;999.90;;;;;;;;;;5065738;28;20208;-64
2023/09/23 02:15:41;;;;;;;1999.90;999.90;;;;;;;;;;5067614;28;20641;-68
2023/09/23 02:18:08;;;;;;;1999.90;999.90;;;;;;;;;;5065780;28;20203;-61
2023/09/23 02:20:35;;;;;;;1999.90;999.90;;;;;;;;;;5067467;28;20209;-66
2023/09/23 02:23:05;;;;;;;1999.90;999.90;;;;;;;;;;5066526;28;20668;-62
2023/09/23 02:25:33;;;;;;;1999.90;999.90;;;;;;;;;;5065555;28;20703;-70
2023/09/23 02:28:00;;;;;;;1999.90;999.90;;;;;;;;;;5065427;28;20284;-66
2023/09/23 02:30:28;;;;;;;1999.90;999.90;;;;;;;;;;5067169;28;20234;-69
2023/09/23 02:32:58;;;;;;;1999.90;999.90;;;;;;;;;;5065990;28;20209;-64
2023/09/23 02:35:26;;;;;;;1999.90;999.90;;;;;;;;;;5066582;28;20190;-67
2023/09/23 02:37:54;;;;;;;1999.90;999.90;;;;;;;;;;5066816;28;20197;-63
2023/09/23 02:40:21;;;;;;;1999.90;999.90;;;;;;;;;;5066670;28;20307;-71
2023/09/23 02:42:53;;;;;;;1999.90;999.90;;;;;;;;;;5066692;28;20202;-63
2023/09/23 02:45:22;;;;;;;1999.90;999.90;;;;;;;;;;5067144;28;20245;-64
2023/09/23 02:47:49;;;;;;;1999.90;999.90;;;;;;;;;;5065311;28;20191;-69
2023/09/23 02:50:18;;;;;;;1999.90;999.90;;;;;;;;;;5066444;28;20205;-69
2023/09/23 02:52:48;;;;;;;1999.90;999.90;;;;;;;;;;5065288;28;20217;-62
2023/09/23 02:55:16;;;;;;;1999.90;999.90;;;;;;;;;;5066191;28;20520;-71
2023/09/23 02:57:45;;;;;;;1999.90;999.90;;;;;;;;;;5066123;28;20247;-73
2023/09/23 03:00:18;;;;;;;1999.90;999.90;;;;;;;;;;5066251;28;20678;-68
2023/09/23 03:02:50;;;;;;;1999.90;999.90;;;;;;;;;;5067125;28;20566;-70
2023/09/23 03:05:23;;;;;;;1999.90;999.90;;;;;;;;;;5066035;28;20205;-73
2023/09/23 03:07:51;;;;;;;1999.90;999.90;;;;;;;;;;5066796;28;20194;-70
2023/09/23 03:10:28;;;;;;;1999.90;999.90;;;;;;;;;;5065979;28;20202;-69
2023/09/23 03:13:02;;;;;;;1999.90;999.90;;;;;;;;;;5066472;28;20252;-73
2023/09/23 03:15:34;;;;;;;1999.90;999.90;;;;;;;;;;5066888;28;20197;-64
2023/09/23 03:18:03;;;;;;;1999.90;999.90;;;;;;;;;;5065317;28;20234;-66
2023/09/23 03:20:34;;;;;;;1999.90;999.90;;;;;;;;;;5067053;28;20193;-71
2023/09/23 03:23:03;;;;;;;1999.90;999.90;;;;;;;;;;5065563;28;20182;-64
2023/09/23 03:25:30;;;;;;;1999.90;999.90;;;;;;;;;;5066879;28;20291;-69
2023/09/23 03:27:57;;;;;;;1999.90;999.90;;;;;;;;;;5065274;28;20277;-68
2023/09/23 03:30:25;;;;;;;1999.90;999.90;;;;;;;;;;5066554;28;20986;-63
2023/09/23 03:32:52;;;;;;;1999.90;999.90;;;;;;;;;;5065840;28;20647;-71
2023/09/23 03:35:24;;;;;;;1999.90;999.90;;;;;;;;;;5065423;28;20233;-66
2023/09/23 03:37:53;;;;;;;1999.90;999.90;;;;;;;;;;5064803;28;20266;-67
2023/09/23 03:40:24;;;;;;;1999.90;999.90;;;;;;;;;;5065082;28;20245;-68
2023/09/23 03:42:52;;;;;;;1999.90;999.90;;;;;;;;;;5049899;28;20189;-62
2023/09/23 03:45:19;;;;;;;1999.90;999.90;;;;;;;;;;5044163;28;20311;-66
2023/09/23 03:47:47;;;;;;;1999.90;999.90;;;;;;;;;;5044723;28;20715;-67
2023/09/23 03:50:15;;;;;;;1999.90;999.90;;;;;;;;;;5046729;28;20346;-65
2023/09/23 03:52:42;;;;;;;1999.90;999.90;;;;;;;;;;5058150;28;20324;-73
2023/09/23 03:55:13;;;;;;;1999.90;999.90;;;;;;;;;;5045989;28;20197;-66
2023/09/23 03:57:42;;;;;;;1999.90;999.90;;;;;;;;;;5044900;28;20209;-67
2023/09/23 04:00:16;;;;;;;1999.90;999.90;;;;;;;;;;5045664;28;20660;-70
2023/09/23 04:02:43;;;;;;;1999.90;999.90;;;;;;;;;;5045548;28;20247;-70
2023/09/23 04:05:10;;;;;;;1999.90;999.90;;;;;;;;;;5044822;28;20260;-64
2023/09/23 04:07:40;;;;;;;1999.90;999.90;;;;;;;;;;5048138;28;20274;-68
2023/09/23 04:10:09;;;;;;;1999.90;999.90;;;;;;;;;;5053312;28;20201;-67
2023/09/23 04:12:37;;;;;;;1999.90;999.90;;;;;;;;;;5070055;28;20526;-68
2023/09/23 04:15:07;;;;;;;1999.90;999.90;;;;;;;;;;5068526;28;20599;-69
2023/09/23 04:17:35;;;;;;;1999.90;999.90;;;;;;;;;;5069840;28;20753;-70
2023/09/23 04:20:07;;;;;;;1999.90;999.90;;;;;;;;;;5069193;28;20197;-69
2023/09/23 04:22:36;;;;;;;1999.90;999.90;;;;;;;;;;5070201;28;20627;-67
2023/09/23 04:25:04;;;;;;;1999.90;999.90;;;;;;;;;;5069499;28;20205;-71
2023/09/23 04:27:32;;;;;;;1999.90;999.90;;;;;;;;;;5068338;28;20188;-69
2023/09/23 04:30:02;;;;;;;1999.90;999.90;;;;;;;;;;5069657;28;20193;-64
2023/09/23 04:32:29;;;;;;;1999.90;999.90;;;;;;;;;;5068137;28;20200;-65
2023/09/23 04:34:57;;;;;;;1999.90;999.90;;;;;;;;;;5069088;28;20242;-66
2023/09/23 04:37:27;;;;;;;1999.90;999.90;;;;;;;;;;5068129;28;20194;-66
2023/09/23 04:39:55;;;;;;;1999.90;999.90;;;;;;;;;;5069411;28;20229;-70
2023/09/23 04:42:22;;;;;;;1999.90;999.90;;;;;;;;;;5069221;28;20207;-65
2023/09/23 04:44:49;;;;;;;1999.90;999.90;;;;;;;;;;5068660;28;20200;-66
2023/09/23 04:47:19;;;;;;;1999.90;999.90;;;;;;;;;;5067266;28;20231;-70
2023/09/23 04:49:48;;;;;;;1999.90;999.90;;;;;;;;;;5047869;28;20220;-67
2023/09/23 04:52:16;;;;;;;1999.90;999.90;;;;;;;;;;5048513;28;20190;-65
2023/09/23 04:54:44;;;;;;;1999.90;999.90;;;;;;;;;;5048084;28;20666;-69
2023/09/23 04:57:13;;;;;;;1999.90;999.90;;;;;;;;;;5047891;28;20189;-65
2023/09/23 04:59:40;;;;;;;1999.90;999.90;;;;;;;;;;5048653;28;20206;-67
2023/09/23 05:02:08;;;;;;;1999.90;999.90;;;;;;;;;;5048123;28;20207;-66
2023/09/23 05:04:36;;;;;;;1999.90;999.90;;;;;;;;;;5048668;28;20195;-72
2023/09/23 05:07:04;;;;;;;1999.90;999.90;;;;;;;;;;5047287;28;20715;-69
2023/09/23 05:09:31;;;;;;;1999.90;999.90;;;;;;;;;;5056965;28;20202;-65
2023/09/23 05:11:59;;;;;;;1999.90;999.90;;;;;;;;;;5068295;28;20246;-70
2023/09/23 05:14:27;;;;;;;1999.90;999.90;;;;;;;;;;5067553;28;20227;-67
2023/09/23 05:16:54;;;;;;;1999.90;999.90;;;;;;;;;;5068093;28;20186;-69
2023/09/23 05:19:21;;;;;;;1999.90;999.90;;;;;;;;;;5065757;28;20299;-64
2023/09/23 05:21:50;;;;;;;1999.90;999.90;;;;;;;;;;5068556;28;20196;-65
2023/09/23 05:24:18;;;;;;;1999.90;999.90;;;;;;;;;;5066560;28;20228;-69
2023/09/23 05:26:47;;;;;;;1999.90;999.90;;;;;;;;;;5066746;28;20223;-67
2023/09/23 05:29:15;;;;;;;1999.90;999.90;;;;;;;;;;5067452;28;20185;-67
2023/09/23 05:31:43;;;;;;;1999.90;999.90;;;;;;;;;;5066504;28;20197;-65
2023/09/23 05:34:11;;;;;;;1999.90;999.90;;;;;;;;;;5067548;28;20230;-65
2023/09/23 05:36:38;;;;;;;1999.90;999.90;;;;;;;;;;5067735;28;20204;-68
2023/09/23 05:39:14;;;;;;;1999.90;999.90;;;;;;;;;;5067836;28;20234;-67
2023/09/23 05:41:42;;;;;;;1999.90;999.90;;;;;;;;;;5066489;28;20231;-72
2023/09/23 05:44:09;;;;;;;1999.90;999.90;;;;;;;;;;5068377;28;20205;-63
2023/09/23 05:46:37;;;;;;;1999.90;999.90;;;;;;;;;;5067263;28;20220;-64
2023/09/23 05:49:08;;;;;;;1999.90;999.90;;;;;;;;;;5066389;28;20225;-65
2023/09/23 05:51:35;;;;;;;1999.90;999.90;;;;;;;;;;5067476;28;20180;-66
2023/09/23 05:54:03;;;;;;;1999.90;999.90;;;;;;;;;;5067081;28;20197;-67
2023/09/23 05:56:31;;;;;;;1999.90;999.90;;;;;;;;;;5067103;28;20657;-69
2023/09/23 05:58:58;;;;;;;1999.90;999.90;;;;;;;;;;5067333;28;20191;-66
2023/09/23 06:01:26;;;;;;;1999.90;999.90;;;;;;;;;;5067408;28;20198;-65
2023/09/23 06:03:53;;;;;;;1999.90;999.90;;;;;;;;;;5066747;28;20287;-68
2023/09/23 06:06:20;;;;;;;1999.90;999.90;;;;;;;;;;5065421;28;20265;-63
2023/09/23 06:08:50;;;;;;;1999.90;999.90;;;;;;;;;;5067146;28;20207;-69
2023/09/23 06:11:17;;;;;;;1999.90;999.90;;;;;;;;;;5066530;28;20725;-71
2023/09/23 06:13:46;;;;;;;1999.90;999.90;;;;;;;;;;5063188;28;20197;-71
2023/09/23 06:16:16;;;;;;;1999.90;999.90;;;;;;;;;;5046142;28;20522;-66
2023/09/23 06:18:43;;;;;;;1999.90;999.90;;;;;;;;;;5047992;28;20187;-66
2023/09/23 06:21:11;;;;;;;1999.90;999.90;;;;;;;;;;5061941;28;20229;-73
2023/09/23 06:23:38;;;;;;;1999.90;999.90;;;;;;;;;;5046386;28;20673;-71
2023/09/23 06:26:06;;;;;;;1999.90;999.90;;;;;;;;;;5062558;28;20700;-66
2023/09/23 06:28:33;;;;;;;1999.90;999.90;;;;;;;;;;5046478;28;20267;-64
2023/09/23 06:31:02;;;;;;;1999.90;999.90;;;;;;;;;;5047345;28;20194;-63
2023/09/23 06:33:29;;;;;;;1999.90;999.90;;;;;;;;;;5045639;28;20206;-70
2023/09/23 06:35:56;;;;;;;1999.90;999.90;;;;;;;;;;5080478;28;20213;-70
2023/09/23 06:38:24;;;;;;;1999.90;999.90;;;;;;;;;;5065635;28;20204;-63
2023/09/23 06:40:56;;;;;;;1999.90;999.90;;;;;;;;;;5066621;28;20193;-62
2023/09/23 06:43:27;;;;;;;1999.90;999.90;;;;;;;;;;5065058;28;20587;-71
2023/09/23 06:45:54;;;;;;;1999.90;999.90;;;;;;;;;;5066083;28;20271;-63
2023/09/23 06:48:23;;;;;;;1999.90;999.90;;;;;;;;;;5065142;28;20567;-63
2023/09/23 06:50:57;;;;;;;1999.90;999.90;;;;;;;;;;5065576;28;20199;-66
2023/09/23 06:53:24;;;;;;;1999.90;999.90;;;;;;;;;;5066073;28;20210;-64
2023/09/23 06:55:52;;;;;;;1999.90;999.90;;;;;;;;;;5066453;28;20207;-61
2023/09/23 06:58:19;;;;;;;1999.90;999.90;;;;;;;;;;5066309;28;20194;-63
2023/09/23 07:00:47;;;;;;;1999.90;999.90;;;;;;;;;;5066590;28;20207;-74
2023/09/23 07:03:14;;;;;;;1999.90;999.90;;;;;;;;;;5061104;28;20189;-67
2023/09/23 07:05:43;;;;;;;1999.90;999.90;;;;;;;;;;5065121;28;20194;-67
2023/09/23 07:08:10;;;;;;;1999.90;999.90;;;;;;;;;;5065213;28;20214;-70
2023/09/23 07:10:38;;;;;;;1999.90;999.90;;;;;;;;;;5065369;28;20195;-66
2023/09/23 07:13:05;;;;;;;1999.90;999.90;;;;;;;;;;5062780;28;20195;-67
2023/09/23 07:15:36;;;;;;;1999.90;999.90;;;;;;;;;;5061780;28;20208;-68
2023/09/23 07:18:05;;;;;;;1999.90;999.90;;;;;;;;;;5065908;28;20188;-68
2023/09/23 07:20:32;;;;;;;1999.90;999.90;;;;;;;;;;5064266;28;20191;-66
2023/09/23 07:23:01;;;;;;;1999.90;999.90;;;;;;;;;;5066150;28;20190;-63
2023/09/23 07:25:28;;;;;;;1999.90;999.90;;;;;;;;;;5064354;28;20199;-67
2023/09/23 07:27:56;;;;;;;1999.90;999.90;;;;;;;;;;5066012;28;20690;-66
2023/09/23 07:30:23;;;;;;;1999.90;999.90;;;;;;;;;;5065196;28;20202;-62
2023/09/23 07:32:50;;;;;;;1999.90;999.90;;;;;;;;;;5065963;28;20214;-72
2023/09/23 07:35:18;;;;;;;1999.90;999.90;;;;;;;;;;5063701;28;20197;-70
2023/09/23 07:37:45;;;;;;;1999.90;999.90;;;;;;;;;;5065120;28;20188;-67
2023/09/23 07:40:14;;;;;;;1999.90;999.90;;;;;;;;;;5065996;28;20731;-70
2023/09/23 07:42:41;;;;;;;1999.90;999.90;;;;;;;;;;5063925;28;20192;-63
2023/09/23 07:45:09;;;;;;;1999.90;999.90;;;;;;;;;;5065746;28;20218;-66
2023/09/23 07:47:37;;;;;;;1999.90;999.90;;;;;;;;;;5061300;28;20621;-75
2023/09/23 07:50:04;;;;;;;1999.90;999.90;;;;;;;;;;5065443;28;20283;-67
2023/09/23 07:52:34;;;;;;;1999.90;999.90;;;;;;;;;;5064704;28;20202;-73
2023/09/23 07:55:01;;;;;;;1999.90;999.90;;;;;;;;;;5063590;28;20291;-61
2023/09/23 07:57:30;;;;;;;1999.90;999.90;;;;;;;;;;5065673;28;20195;-62
2023/09/23 07:59:57;;;;;;;1999.90;999.90;;;;;;;;;;5064878;28;20203;-66
2023/09/23 08:02:25;;;;;;;1999.90;999.90;;;;;;;;;;5065695;28;20670;-68
2023/09/23 08:04:52;;;;;;;1999.90;999.90;;;;;;;;;;5064071;28;20271;-67
2023/09/23 08:07:19;;;;;;;1999.90;999.90;;;;;;;;;;5065350;28;21021;-67
2023/09/23 08:09:47;;;;;;;1999.90;999.90;;;;;;;;;;5064769;28;20191;-64
2023/09/23 08:12:14;;;;;;;1999.90;999.90;;;;;;;;;;5065179;28;20196;-65
2023/09/23 08:14:42;;;;;;;1999.90;999.90;;;;;;;;;;5064895;28;20237;-70
2023/09/23 08:17:10;;;;;;;1999.90;999.90;;;;;;;;;;5066265;28;20204;-71
2023/09/23 08:19:37;;;;;;;1999.90;999.90;;;;;;;;;;5065166;28;20217;-64
2023/09/23 08:22:05;;;;;;;1999.90;999.90;;;;;;;;;;5066022;28;20273;-72
2023/09/23 08:24:32;;;;;;;1999.90;999.90;;;;;;;;;;5066935;28;20209;-70
2023/09/23 08:27:00;;;;;;;1999.90;999.90;;;;;;;;;;5066443;28;20681;-69
2023/09/23 08:29:29;;;;;;;1999.90;999.90;;;;;;;;;;5065509;28;20405;-72
2023/09/23 08:31:58;;;;;;;1999.90;999.90;;;;;;;;;;5065927;28;20198;-65
2023/09/23 08:34:25;;;;;;;1999.90;999.90;;;;;;;;;;5065026;28;20187;-66
2023/09/23 08:36:53;;;;;;;1999.90;999.90;;;;;;;;;;5066049;28;20195;-66
2023/09/23 08:39:20;;;;;;;1999.90;999.90;;;;;;;;;;5062693;28;20191;-69
2023/09/23 08:41:52;;;;;;;1999.90;999.90;;;;;;;;;;5065705;28;20199;-66
2023/09/23 08:44:21;;;;;;;1999.90;999.90;;;;;;;;;;5062693;28;20264;-66
2023/09/23 08:46:50;;;;;;;1999.90;999.90;;;;;;;;;;5064917;28;20223;-65
2023/09/23 08:49:20;;;;;;;1999.90;999.90;;;;;;;;;;5066345;28;20279;-68
2023/09/23 08:51:48;;;;;;;1999.90;999.90;;;;;;;;;;5063665;28;20643;-68
2023/09/23 08:54:15;;;;;;;1999.90;999.90;;;;;;;;;;5068808;28;20189;-68
2023/09/23 08:56:43;;;;;;;1999.90;999.90;;;;;;;;;;5068701;28;20200;-69
2023/09/23 08:59:11;;;;;;;1999.90;999.90;;;;;;;;;;5069998;28;20587;-70
2023/09/23 09:01:45;;;;;;;1999.90;999.90;;;;;;;;;;5069294;28;20277;-63
2023/09/23 09:04:14;;;;;;;1999.90;999.90;;;;;;;;;;5068324;28;20209;-66
2023/09/23 09:06:50;;;;;;;1999.90;999.90;;;;;;;;;;5069567;28;20197;-68
2023/09/23 09:09:18;;;;;;;1999.90;999.90;;;;;;;;;;5085429;28;20955;-71
2023/09/23 09:11:46;;;;;;;1999.90;999.90;;;;;;;;;;5078688;28;20290;-71
2023/09/23 09:14:14;;;;;;;1999.90;999.90;;;;;;;;;;5069080;28;20197;-71
2023/09/23 09:16:41;;;;;;;1999.90;999.90;;;;;;;;;;5076983;28;20186;-68
2023/09/23 09:19:08;;;;;;;1999.90;999.90;;;;;;;;;;5073613;28;20201;-71
2023/09/23 09:21:36;;;;;;;1999.90;999.90;;;;;;;;;;5067968;28;20238;-71
2023/09/23 09:24:05;;;;;;;1999.90;999.90;;;;;;;;;;5069502;28;20191;-67
2023/09/23 09:26:32;;;;;;;1999.90;999.90;;;;;;;;;;5068581;28;20552;-66
2023/09/23 09:29:00;;;;;;;1999.90;999.90;;;;;;;;;;5069547;28;20401;-64
2023/09/23 09:31:31;;;;;;;1999.90;999.90;;;;;;;;;;5068201;28;20199;-70
2023/09/23 09:34:02;;;;;;;1999.90;999.90;;;;;;;;;;5069006;28;20542;-67
2023/09/23 09:36:30;;;;;;;1999.90;999.90;;;;;;;;;;5069127;28;20187;-65
2023/09/23 09:38:58;;;;;;;1999.90;999.90;;;;;;;;;;5067059;28;20196;-67
2023/09/23 09:41:36;;;;;;;1999.90;999.90;;;;;;;;;;5069524;28;20197;-74
2023/09/23 09:44:04;;;;;;;1999.90;999.90;;;;;;;;;;5067925;28;20227;-71
2023/09/23 09:46:32;;;;;;;1999.90;999.90;;;;;;;;;;5069738;28;20193;-67
2023/09/23 09:49:00;;;;;;;1999.90;999.90;;;;;;;;;;5068213;28;20224;-71
2023/09/23 09:51:27;;;;;;;1999.90;999.90;;;;;;;;;;5068752;28;20209;-70
2023/09/23 09:53:55;;;;;;;1999.90;999.90;;;;;;;;;;5067140;28;20197;-74
2023/09/23 09:56:25;;;;;;;1999.90;999.90;;;;;;;;;;5068608;28;20215;-66
2023/09/23 09:58:56;;;;;;;1999.90;999.90;;;;;;;;;;5068962;28;20193;-66
2023/09/23 10:01:24;;;;;;;1999.90;999.90;;;;;;;;;;5067926;28;20597;-70
2023/09/23 10:03:51;;;;;;;1999.90;999.90;;;;;;;;;;5068166;28;20191;-69
2023/09/23 10:06:22;;;;;;;1999.90;999.90;;;;;;;;;;5068163;28;20211;-68
2023/09/23 10:08:51;;;;;;;1999.90;999.90;;;;;;;;;;5068403;28;20739;-66
2023/09/23 10:11:19;;;;;;;1999.90;999.90;;;;;;;;;;5068777;28;20199;-73
2023/09/23 10:13:46;;;;;;;1999.90;999.90;;;;;;;;;;5068314;28;20197;-68
2023/09/23 10:16:17;;;;;;;1999.90;999.90;;;;;;;;;;5050603;28;20197;-72
2023/09/23 10:18:44;;;;;;;1999.90;999.90;;;;;;;;;;5067863;28;20280;-63
2023/09/23 10:21:23;;;;;;;1999.90;999.90;;;;;;;;;;5069061;28;20207;-64
2023/09/23 10:23:52;;;;;;;1999.90;999.90;;;;;;;;;;5067630;28;20178;-71
2023/09/23 10:26:20;;;;;;;1999.90;999.90;;;;;;;;;;5068424;28;20254;-68
2023/09/23 10:28:57;;;;;;;1999.90;999.90;;;;;;;;;;5068299;28;20221;-67
2023/09/23 10:31:27;;;;;;;1999.90;999.90;;;;;;;;;;5067929;28;20190;-67
2023/09/23 10:33:55;;;;;;;1999.90;999.90;;;;;;;;;;5066922;28;20206;-65
2023/09/23 10:36:23;;;;;;;1999.90;999.90;;;;;;;;;;5067356;28;20655;-71
2023/09/23 10:38:50;;;;;;;1999.90;999.90;;;;;;;;;;5068562;28;20201;-72
2023/09/23 10:41:19;;;;;;;1999.90;999.90;;;;;;;;;;5067683;28;20692;-73
2023/09/23 10:43:53;;;;;;;1999.90;999.90;;;;;;;;;;5067150;28;20230;-70
2023/09/23 10:46:21;;;;;;;1999.90;999.90;;;;;;;;;;5068070;28;20541;-67
2023/09/23 10:48:50;;;;;;;1999.90;999.90;;;;;;;;;;5067096;28;20708;-67
2023/09/23 10:51:17;;;;;;;1999.90;999.90;;;;;;;;;;5067950;28;20218;-72
2023/09/23 10:53:44;;;;;;;1999.90;999.90;;;;;;;;;;5066868;28;20196;-69
2023/09/23 10:56:12;;;;;;;1999.90;999.90;;;;;;;;;;5066052;28;20202;-67
2023/09/23 10:58:39;;;;;;;1999.90;999.90;;;;;;;;;;5067293;28;20198;-71
2023/09/23 11:01:07;;;;;;;1999.90;999.90;;;;;;;;;;5067170;28;20236;-71
2023/09/23 11:03:39;;;;;;;1999.90;999.90;;;;;;;;;;5066192;28;20540;-69
2023/09/23 11:06:08;;;;;;;1999.90;999.90;;;;;;;;;;5065138;28;20220;-71
2023/09/23 11:08:36;;;;;;;1999.90;999.90;;;;;;;;;;5067863;28;20211;-65
2023/09/23 11:11:04;;;;;;;1999.90;999.90;;;;;;;;;;5066259;28;20240;-72
2023/09/23 11:13:33;;;;;;;1999.90;999.90;;;;;;;;;;5066181;28;20203;-65
2023/09/23 11:16:01;;;;;;;1999.90;999.90;;;;;;;;;;5064562;28;20199;-66
2023/09/23 11:18:30;;;;;;;1999.90;999.90;;;;;;;;;;5066762;28;20183;-65
2023/09/23 11:20:57;;;;;;;1999.90;999.90;;;;;;;;;;5067460;28;20281;-70
2023/09/23 11:23:29;;;;;;;1999.90;999.90;;;;;;;;;;5066645;28;20666;-70
2023/09/23 11:25:57;;;;;;;1999.90;999.90;;;;;;;;;;5067486;28;20187;-67
2023/09/23 11:28:25;;;;;;;1999.90;999.90;;;;;;;;;;5064317;28;20222;-68
2023/09/23 11:30:54;;;;;;;1999.90;999.90;;;;;;;;;;5067157;28;20263;-71
2023/09/23 11:33:22;;;;;;;1999.90;999.90;;;;;;;;;;5065950;28;20561;-66
2023/09/23 11:35:50;;;;;;;1999.90;999.90;;;;;;;;;;5066616;28;20199;-68
2023/09/23 11:38:18;;;;;;;1999.90;999.90;;;;;;;;;;5066560;28;20195;-66
2023/09/23 11:40:47;;;;;;;1999.90;999.90;;;;;;;;;;5066315;28;20198;-66
2023/09/23 11:43:15;;;;;;;1999.90;999.90;;;;;;;;;;5066773;28;20425;-69
2023/09/23 11:45:43;;;;;;;1999.90;999.90;;;;;;;;;;5064566;28;20226;-69
2023/09/23 11:48:10;;;;;;;1999.90;999.90;;;;;;;;;;5065752;28;20226;-67
2023/09/23 11:50:38;;;;;;;1999.90;999.90;;;;;;;;;;5066014;28;20192;-67
2023/09/23 11:53:06;;;;;;;1999.90;999.90;;;;;;;;;;5066250;28;20197;-66
2023/09/23 11:55:33;;;;;;;1999.90;999.90;;;;;;;;;;5066608;28;20195;-70
2023/09/23 11:58:02;;;;;;;1999.90;999.90;;;;;;;;;;5066167;28;20205;-67
2023/09/23 12:00:30;;;;;;;1999.90;999.90;;;;;;;;;;5065493;28;20196;-70
2023/09/23 12:02:57;;;;;;;1999.90;999.90;;;;;;;;;;5065981;28;20202;-67
2023/09/23 12:05:28;;;;;;;1999.90;999.90;;;;;;;;;;5066640;28;20400;-69
2023/09/23 12:07:58;;;;;;;1999.90;999.90;;;;;;;;;;5064486;28;20226;-70
2023/09/23 12:10:25;;;;;;;1999.90;999.90;;;;;;;;;;5065994;28;20257;-73
2023/09/23 12:12:53;;;;;;;1999.90;999.90;;;;;;;;;;5066703;28;20187;-68
2023/09/23 12:15:22;;;;;;;1999.90;999.90;;;;;;;;;;5065935;28;20211;-66
2023/09/23 12:17:49;;;;;;;1999.90;999.90;;;;;;;;;;5066728;28;20680;-65
2023/09/23 12:20:16;;;;;;;1999.90;999.90;;;;;;;;;;5065320;28;20191;-64
2023/09/23 12:22:45;;;;;;;1999.90;999.90;;;;;;;;;;5067032;28;20199;-69
2023/09/23 12:25:14;;;;;;;1999.90;999.90;;;;;;;;;;5064253;28;20201;-65
2023/09/23 12:27:41;;;;;;;1999.90;999.90;;;;;;;;;;5066483;28;20232;-69
2023/09/23 12:30:09;;;;;;;1999.90;999.90;;;;;;;;;;5070011;28;20543;-64
2023/09/23 12:32:38;;;;;;;1999.90;999.90;;;;;;;;;;5070233;28;20206;-70
2023/09/23 12:35:06;;;;;;;1999.90;999.90;;;;;;;;;;5071006;28;20190;-70
2023/09/23 12:37:33;;;;;;;1999.90;999.90;;;;;;;;;;5069578;28;20191;-66
2023/09/23 12:40:00;;;;;;;1999.90;999.90;;;;;;;;;;5071264;28;20213;-77
2023/09/23 12:42:28;;;;;;;1999.90;999.90;;;;;;;;;;5068238;28;20655;-73
2023/09/23 12:44:55;;;;;;;1999.90;999.90;;;;;;;;;;5067437;28;20284;-69
2023/09/23 12:47:23;;;;;;;1999.90;999.90;;;;;;;;;;5059903;28;20206;-68
2023/09/23 12:49:51;;;;;;;1999.90;999.90;;;;;;;;;;5069718;28;20248;-65
2023/09/23 12:52:19;;;;;;;1999.90;999.90;;;;;;;;;;5069621;28;20191;-63
2023/09/23 12:54:46;;;;;;;1999.90;999.90;;;;;;;;;;5069166;28;20203;-68
2023/09/23 12:57:14;;;;;;;1999.90;999.90;;;;;;;;;;5069895;28;20201;-67
2023/09/23 12:59:41;;;;;;;1999.90;999.90;;;;;;;;;;5069360;28;20194;-69
2023/09/23 13:02:08;;;;;;;1999.90;999.90;;;;;;;;;;5070226;28;20189;-67
2023/09/23 13:04:36;;;;;;;1999.90;999.90;;;;;;;;;;5069054;28;20198;-67
2023/09/23 13:07:04;;;;;;;1999.90;999.90;;;;;;;;;;5068172;28;20197;-69
2023/09/23 13:09:31;;;;;;;1999.90;999.90;;;;;;;;;;5069306;28;20223;-64
2023/09/23 13:11:59;;;;;;;1999.90;999.90;;;;;;;;;;5068950;28;20304;-70
2023/09/23 13:14:26;;;;;;;1999.90;999.90;;;;;;;;;;5069972;28;20193;-72
2023/09/23 13:16:55;;;;;;;1999.90;999.90;;;;;;;;;;5069302;28;20191;-71
2023/09/23 13:19:22;;;;;;;1999.90;999.90;;;;;;;;;;5069235;28;20199;-68
2023/09/23 13:21:49;;;;;;;1999.90;999.90;;;;;;;;;;5069914;28;20210;-64
2023/09/23 13:24:18;;;;;;;1999.90;999.90;;;;;;;;;;5067648;28;20188;-64
2023/09/23 13:26:46;;;;;;;1999.90;999.90;;;;;;;;;;5068575;28;20211;-72
2023/09/23 13:29:14;;;;;;;1999.90;999.90;;;;;;;;;;5068669;28;20222;-66
2023/09/23 13:31:41;;;;;;;1999.90;999.90;;;;;;;;;;5069413;28;20191;-70
2023/09/23 13:34:09;;;;;;;1999.90;999.90;;;;;;;;;;5065938;28;20198;-65
2023/09/23 13:36:36;;;;;;;1999.90;999.90;;;;;;;;;;5069107;28;20286;-65
2023/09/23 13:39:04;;;;;;;1999.90;999.90;;;;;;;;;;5068500;28;20200;-64
2023/09/23 13:41:33;;;;;;;1999.90;999.90;;;;;;;;;;5067675;28;20225;-73
2023/09/23 13:44:01;;;;;;;1999.90;999.90;;;;;;;;;;5067921;28;20187;-68
2023/09/23 13:46:28;;;;;;;1999.90;999.90;;;;;;;;;;5067030;28;20193;-69
2023/09/23 13:48:55;;;;;;;1999.90;999.90;;;;;;;;;;5069692;28;20723;-74